AFA11 RCFN-RCFN

Flight info

Callsign AFA11
Flight time 0h 15m
Altitude 1100
Route DCT ZN DCT
Aircraft DA40/L-SDFGRY/S

Departure

Time 2026-04-27 12:41
Airport Taitung Airport (RCFN)

Arrival

Time 2026-04-27 12:57
Airport Taitung Airport (RCFN)
Time Latitude Longitude Altitude Speed Heading
2026-04-27 12:32 22.75947 121.10316 186 ft 0 kts 41°
2026-04-27 12:36 22.75954 121.10331 140 ft 5 kts 113°
2026-04-27 12:37 22.75931 121.10361 139 ft 6 kts 149°
2026-04-27 12:37 22.75892 121.10356 137 ft 5 kts 221°
2026-04-27 12:37 22.75855 121.10344 138 ft 5 kts 156°
2026-04-27 12:37 22.75842 121.10357 138 ft 0 kts 127°
2026-04-27 12:38 22.75842 121.10358 138 ft 0 kts 127°
2026-04-27 12:39 22.75842 121.10357 138 ft 0 kts 127°
2026-04-27 12:39 22.75831 121.10372 139 ft 9 kts 128°
2026-04-27 12:40 22.75796 121.10425 140 ft 4 kts 72°
2026-04-27 12:40 22.75812 121.10440 140 ft 0 kts 37°
2026-04-27 12:40 22.75870 121.10494 139 ft 35 kts 39°
2026-04-27 12:41 22.76189 121.10764 155 ft 74 kts 43°
2026-04-27 12:41 22.76581 121.11120 352 ft 76 kts 49°
2026-04-27 12:41 22.76986 121.11472 496 ft 78 kts 47°
2026-04-27 12:41 22.77438 121.11837 757 ft 80 kts 36°
2026-04-27 12:42 22.77997 121.11807 975 ft 92 kts 322°
2026-04-27 12:42 22.78226 121.11198 1148 ft 98 kts 259°
2026-04-27 12:42 22.77928 121.10483 1166 ft 111 kts 236°
2026-04-27 12:42 22.77507 121.09756 1146 ft 114 kts 230°
2026-04-27 12:43 22.76976 121.09154 1116 ft 110 kts 219°
2026-04-27 12:43 22.76369 121.08645 1106 ft 111 kts 214°
2026-04-27 12:43 22.75778 121.08116 1114 ft 112 kts 218°
2026-04-27 12:43 22.75179 121.07570 1127 ft 108 kts 217°
2026-04-27 12:44 22.74621 121.07067 1134 ft 103 kts 216°
2026-04-27 12:44 22.74030 121.06655 1045 ft 102 kts 191°
2026-04-27 12:44 22.73400 121.06893 974 ft 96 kts 130°
2026-04-27 12:44 22.73022 121.07420 963 ft 82 kts 115°
2026-04-27 12:45 22.73109 121.08007 822 ft 84 kts 61°
2026-04-27 12:45 22.73532 121.08472 644 ft 87 kts 45°
2026-04-27 12:45 22.74013 121.08883 391 ft 86 kts 44°
2026-04-27 12:45 22.74471 121.09289 237 ft 84 kts 41°
2026-04-27 12:46 22.74922 121.09675 150 ft 75 kts 39°
2026-04-27 12:46 22.75260 121.09965 141 ft 65 kts 39°
2026-04-27 12:46 22.75670 121.10314 278 ft 78 kts 42°
2026-04-27 12:46 22.76095 121.10683 432 ft 79 kts 48°
2026-04-27 12:47 22.76524 121.11061 646 ft 82 kts 46°
2026-04-27 12:47 22.76981 121.11456 799 ft 85 kts 33°
2026-04-27 12:47 22.77567 121.11424 957 ft 92 kts 327°
2026-04-27 12:47 22.78005 121.10903 1123 ft 99 kts 305°
2026-04-27 12:48 22.78106 121.10124 1132 ft 115 kts 248°
2026-04-27 12:48 22.77587 121.09481 1113 ft 112 kts 214°
2026-04-27 12:48 22.76964 121.08972 1118 ft 114 kts 216°
2026-04-27 12:48 22.76326 121.08463 1112 ft 112 kts 215°
2026-04-27 12:49 22.75718 121.07970 1135 ft 105 kts 216°
2026-04-27 12:49 22.75148 121.07510 1120 ft 98 kts 213°
2026-04-27 12:49 22.74615 121.07062 1125 ft 99 kts 215°
2026-04-27 12:49 22.74022 121.06688 1050 ft 97 kts 183°
2026-04-27 12:50 22.73486 121.06969 973 ft 87 kts 130°
2026-04-27 12:50 22.73120 121.07466 888 ft 85 kts 120°
2026-04-27 12:50 22.73167 121.08045 700 ft 83 kts 63°
2026-04-27 12:50 22.73575 121.08511 502 ft 89 kts 41°
2026-04-27 12:51 22.74049 121.08918 353 ft 84 kts 42°
2026-04-27 12:51 22.74507 121.09315 228 ft 84 kts 44°
2026-04-27 12:51 22.74947 121.09696 149 ft 70 kts 39°
2026-04-27 12:51 22.75274 121.09977 141 ft 65 kts 39°
2026-04-27 12:52 22.75699 121.10329 269 ft 79 kts 43°
2026-04-27 12:52 22.76120 121.10704 424 ft 79 kts 47°
2026-04-27 12:52 22.76541 121.11088 619 ft 80 kts 47°
2026-04-27 12:52 22.76985 121.11480 713 ft 83 kts 31°
2026-04-27 12:53 22.78042 121.10910 1065 ft 95 kts 306°
2026-04-27 12:53 22.78161 121.10200 1113 ft 105 kts 247°
2026-04-27 12:53 22.77663 121.09594 1127 ft 114 kts 215°
2026-04-27 12:54 22.77042 121.09066 1129 ft 113 kts 216°
2026-04-27 12:54 22.76422 121.08529 1112 ft 115 kts 216°
2026-04-27 12:54 22.75810 121.07990 1115 ft 112 kts 216°
2026-04-27 12:54 22.75223 121.07481 1121 ft 107 kts 214°
2026-04-27 12:55 22.74659 121.06994 1138 ft 101 kts 214°
2026-04-27 12:55 22.74271 121.06718 1075 ft 99 kts 198°
2026-04-27 12:55 22.73507 121.06990 885 ft 91 kts 130°
2026-04-27 12:55 22.73255 121.07312 865 ft 81 kts 129°
2026-04-27 12:56 22.73196 121.07880 700 ft 81 kts 71°
2026-04-27 12:56 22.73658 121.08579 455 ft 88 kts 46°
2026-04-27 12:56 22.73978 121.08857 353 ft 87 kts 44°
2026-04-27 12:56 22.74436 121.09255 246 ft 83 kts 45°
2026-04-27 12:57 22.74892 121.09648 155 ft 79 kts 41°
2026-04-27 12:57 22.75311 121.10013 141 ft 48 kts 36°
2026-04-27 12:57 22.75532 121.10199 141 ft 73 kts 40°
2026-04-27 12:57 22.75942 121.10555 326 ft 75 kts 45°
2026-04-27 12:58 22.76347 121.10927 513 ft 76 kts 46°
2026-04-27 12:58 22.76755 121.11315 550 ft 83 kts 46°
2026-04-27 12:58 22.77224 121.11717 747 ft 86 kts 37°
2026-04-27 12:58 22.77806 121.11736 960 ft 90 kts 326°
2026-04-27 12:59 22.78243 121.11250 1105 ft 95 kts 308°
2026-04-27 12:59 22.78308 121.10534 1117 ft 105 kts 241°
2026-04-27 12:59 22.77826 121.09933 1137 ft 113 kts 219°
2026-04-27 12:59 22.77216 121.09344 1111 ft 117 kts 215°
2026-04-27 13:00 22.76583 121.08832 1122 ft 110 kts 214°
2026-04-27 13:00 22.76011 121.08351 1110 ft 99 kts 215°
2026-04-27 13:00 22.75469 121.07910 1088 ft 92 kts 205°
2026-04-27 13:00 22.74912 121.07956 886 ft 86 kts 139°
2026-04-27 13:01 22.74614 121.08514 598 ft 89 kts 105°
2026-04-27 13:01 22.74539 121.09129 350 ft 84 kts 90°
2026-04-27 13:01 22.74869 121.09628 153 ft 77 kts 42°
2026-04-27 13:01 22.75205 121.09920 144 ft 55 kts 37°
2026-04-27 13:02 22.75593 121.10243 225 ft 76 kts 42°
2026-04-27 13:02 22.75998 121.10601 395 ft 77 kts 47°
2026-04-27 13:02 22.76419 121.10967 593 ft 75 kts 49°
2026-04-27 13:02 22.76860 121.11376 619 ft 84 kts 47°
2026-04-27 13:03 22.77386 121.11694 803 ft 92 kts
2026-04-27 13:03 22.77954 121.11383 937 ft 99 kts 310°
2026-04-27 13:03 22.78391 121.10852 1096 ft 96 kts 297°
2026-04-27 13:03 22.78376 121.10118 1116 ft 107 kts 237°
2026-04-27 13:04 22.77804 121.09538 1111 ft 117 kts 215°
2026-04-27 13:04 22.77159 121.09034 1121 ft 113 kts 213°
2026-04-27 13:04 22.76514 121.08541 1101 ft 114 kts 214°
2026-04-27 13:04 22.75931 121.08075 1179 ft 100 kts 216°
2026-04-27 13:05 22.75412 121.07556 1150 ft 102 kts 221°
2026-04-27 13:05 22.75144 121.06881 1134 ft 106 kts 276°
2026-04-27 13:05 22.75604 121.06276 1098 ft 109 kts 349°
2026-04-27 13:05 22.76183 121.06591 1114 ft 100 kts 71°
2026-04-27 13:06 22.75976 121.07237 1089 ft 101 kts 152°
2026-04-27 13:06 22.75360 121.07004 1138 ft 106 kts 241°
2026-04-27 13:06 22.75545 121.06265 1128 ft 114 kts 328°
2026-04-27 13:06 22.76227 121.06372 1106 ft 103 kts 58°
2026-04-27 13:07 22.76068 121.07047 1071 ft 96 kts 132°
2026-04-27 13:07 22.75686 121.07551 905 ft 87 kts 130°
2026-04-27 13:07 22.75316 121.08039 672 ft 87 kts 132°
2026-04-27 13:07 22.74969 121.08550 422 ft 82 kts 126°
2026-04-27 13:08 22.74670 121.09050 263 ft 69 kts 120°
2026-04-27 13:08 22.74724 121.09549 241 ft 82 kts 50°
2026-04-27 13:08 22.75228 121.09931 476 ft 83 kts 45°
2026-04-27 13:08 22.75666 121.10325 747 ft 82 kts 48°
2026-04-27 13:09 22.76170 121.10628 815 ft 94 kts
2026-04-27 13:09 22.76689 121.10271 954 ft 89 kts 292°
2026-04-27 13:09 22.76854 121.09577 1066 ft 100 kts 272°
2026-04-27 13:09 22.76625 121.08869 1120 ft 106 kts 226°
2026-04-27 13:10 22.76031 121.08334 1106 ft 109 kts 220°
2026-04-27 13:10 22.75460 121.07886 1080 ft 92 kts 188°
2026-04-27 13:10 22.74979 121.08172 851 ft 87 kts 122°
2026-04-27 13:10 22.74705 121.08743 625 ft 80 kts 120°
2026-04-27 13:11 22.74593 121.09310 298 ft 81 kts 75°
2026-04-27 13:11 22.74957 121.09707 145 ft 63 kts 38°
2026-04-27 13:11 22.75287 121.09987 141 ft 75 kts 40°
2026-04-27 13:11 22.75709 121.10331 338 ft 76 kts 49°
2026-04-27 13:12 22.76121 121.10707 480 ft 80 kts 50°
2026-04-27 13:12 22.76519 121.11103 611 ft 81 kts 46°
2026-04-27 13:12 22.77016 121.11420 718 ft 92 kts
2026-04-27 13:12 22.77578 121.11164 959 ft 90 kts 314°
2026-04-27 13:13 22.77959 121.10651 1084 ft 90 kts 284°
2026-04-27 13:13 22.77827 121.09987 1110 ft 99 kts 224°
2026-04-27 13:13 22.77265 121.09460 1098 ft 113 kts 219°
2026-04-27 13:13 22.76668 121.08914 1114 ft 114 kts 217°
2026-04-27 13:14 22.76055 121.08387 1146 ft 107 kts 217°
2026-04-27 13:14 22.75498 121.07943 1076 ft 90 kts 194°
2026-04-27 13:14 22.74980 121.08153 882 ft 82 kts 133°
2026-04-27 13:14 22.74655 121.08671 628 ft 79 kts 124°
2026-04-27 13:15 22.74536 121.09209 323 ft 79 kts 74°
2026-04-27 13:15 22.74873 121.09631 146 ft 65 kts 40°
2026-04-27 13:15 22.75213 121.09924 145 ft 76 kts 40°
2026-04-27 13:15 22.75628 121.10278 349 ft 75 kts 43°
2026-04-27 13:16 22.76041 121.10642 478 ft 78 kts 46°
2026-04-27 13:16 22.76471 121.11019 612 ft 83 kts 45°
2026-04-27 13:16 22.76950 121.11375 689 ft 94 kts 22°
2026-04-27 13:16 22.77552 121.11178 944 ft 89 kts 311°
2026-04-27 13:17 22.77936 121.10637 1030 ft 94 kts 285°
2026-04-27 13:17 22.77816 121.09974 1100 ft 99 kts 224°
2026-04-27 13:17 22.77245 121.09472 1114 ft 114 kts 217°
2026-04-27 13:17 22.76644 121.08927 1129 ft 109 kts 217°
2026-04-27 13:18 22.76082 121.08406 1115 ft 102 kts 216°
2026-04-27 13:18 22.75531 121.07955 1103 ft 100 kts 211°
2026-04-27 13:18 22.74949 121.07863 946 ft 87 kts 149°
2026-04-27 13:18 22.74583 121.08358 716 ft 84 kts 118°
2026-04-27 13:19 22.74422 121.08937 457 ft 79 kts 90°
2026-04-27 13:19 22.74659 121.09443 167 ft 78 kts 50°
2026-04-27 13:19 22.74999 121.09741 144 ft 55 kts 37°
2026-04-27 13:19 22.75383 121.10064 239 ft 75 kts 45°
2026-04-27 13:20 22.75798 121.10425 384 ft 79 kts 47°
2026-04-27 13:20 22.76212 121.10804 582 ft 77 kts 43°
2026-04-27 13:20 22.76656 121.11192 625 ft 83 kts 43°
2026-04-27 13:20 22.77261 121.11242 791 ft 95 kts 334°
2026-04-27 13:21 22.77723 121.10754 908 ft 93 kts 306°
2026-04-27 13:21 22.77780 121.10107 1044 ft 89 kts 240°
2026-04-27 13:21 22.77328 121.09605 1124 ft 104 kts 219°
2026-04-27 13:21 22.76755 121.09066 1096 ft 110 kts 218°
2026-04-27 13:22 22.76157 121.08532 1104 ft 113 kts 217°
2026-04-27 13:22 22.75578 121.08002 1120 ft 100 kts 216°
2026-04-27 13:22 22.75003 121.07950 944 ft 84 kts 146°
2026-04-27 13:22 22.74638 121.08458 699 ft 81 kts 124°
2026-04-27 13:23 22.74441 121.08996 385 ft 80 kts 87°
2026-04-27 13:23 22.74707 121.09485 155 ft 72 kts 45°
2026-04-27 13:23 22.75015 121.09758 144 ft 47 kts 40°
2026-04-27 13:23 22.75321 121.10020 141 ft 75 kts 40°
2026-04-27 13:24 22.75742 121.10361 347 ft 75 kts 50°
2026-04-27 13:24 22.76159 121.10736 546 ft 74 kts 45°
2026-04-27 13:24 22.76565 121.11104 592 ft 82 kts 47°
2026-04-27 13:24 22.77045 121.11495 743 ft 89 kts 28°
2026-04-27 13:25 22.77650 121.11406 914 ft 93 kts 319°
2026-04-27 13:25 22.78106 121.10934 1101 ft 91 kts 308°
2026-04-27 13:25 22.78179 121.10228 1092 ft 105 kts 242°
2026-04-27 13:25 22.77655 121.09666 1130 ft 113 kts 217°
2026-04-27 13:26 22.77038 121.09118 1105 ft 115 kts 217°
2026-04-27 13:26 22.76426 121.08573 1120 ft 111 kts 216°
2026-04-27 13:26 22.75858 121.08078 1098 ft 100 kts 217°
2026-04-27 13:26 22.75293 121.07878 933 ft 85 kts 166°
2026-04-27 13:27 22.74860 121.08312 671 ft 85 kts 126°
2026-04-27 13:27 22.74564 121.08812 468 ft 77 kts 122°
2026-04-27 13:27 22.74597 121.09345 197 ft 74 kts 62°
2026-04-27 13:27 22.74909 121.09666 145 ft 50 kts 39°
2026-04-27 13:28 22.75180 121.09897 141 ft 64 kts 39°
2026-04-27 13:28 22.75586 121.10242 308 ft 72 kts 41°
2026-04-27 13:28 22.75989 121.10592 456 ft 78 kts 48°
2026-04-27 13:28 22.76396 121.10959 578 ft 80 kts 43°
2026-04-27 13:29 22.76847 121.11345 676 ft 87 kts 40°
2026-04-27 13:29 22.77457 121.11380 866 ft 96 kts 331°
2026-04-27 13:29 22.77917 121.10888 1067 ft 90 kts 307°
2026-04-27 13:29 22.77986 121.10234 1099 ft 98 kts 239°
2026-04-27 13:30 22.77485 121.09690 1115 ft 110 kts 217°
2026-04-27 13:30 22.76866 121.09145 1092 ft 117 kts 218°
2026-04-27 13:30 22.76255 121.08588 1118 ft 115 kts 218°
2026-04-27 13:30 22.75634 121.08041 1103 ft 111 kts 218°
2026-04-27 13:31 22.75081 121.07522 1138 ft 101 kts 217°
2026-04-27 13:31 22.74532 121.07036 1099 ft 100 kts 217°
2026-04-27 13:31 22.73940 121.06785 1117 ft 93 kts 168°
2026-04-27 13:31 22.73454 121.07201 1117 ft 87 kts 131°
2026-04-27 13:32 22.73135 121.07736 979 ft 86 kts 103°
2026-04-27 13:32 22.73361 121.08329 843 ft 94 kts 41°
2026-04-27 13:32 22.73848 121.08731 569 ft 84 kts 41°
2026-04-27 13:32 22.74300 121.09135 246 ft 86 kts 44°
2026-04-27 13:33 22.74725 121.09504 148 ft 64 kts 43°
2026-04-27 13:33 22.74951 121.09703 144 ft 4 kts 33°
2026-04-27 13:33 22.74985 121.09729 144 ft 12 kts 38°
2026-04-27 13:33 22.75086 121.09816 143 ft 24 kts 36°
2026-04-27 13:34 22.75217 121.09930 141 ft 22 kts 39°
2026-04-27 13:34 22.75325 121.10022 141 ft 18 kts 38°
2026-04-27 13:34 22.75452 121.10132 140 ft 31 kts 39°
2026-04-27 13:34 22.75633 121.10287 141 ft 31 kts 39°
2026-04-27 13:35 22.75761 121.10397 140 ft 13 kts 34°
2026-04-27 13:35 22.75833 121.10369 139 ft 13 kts 309°
2026-04-27 13:35 22.75886 121.10350 137 ft 8 kts 31°
2026-04-27 13:35 22.75930 121.10366 138 ft 3 kts 333°
2026-04-27 13:36 22.75943 121.10347 140 ft 7 kts 306°
2026-04-27 13:36 22.75970 121.10309 140 ft 0 kts 306°